sensor_id;sensor_type;location;lat;lon;timestamp;temperature;humidity
11025;DHT22;22890;51.820;8.682;2024-03-17T00:01:18;5.60;99.90
11025;DHT22;22890;51.820;8.682;2024-03-17T00:11:03;5.50;99.90
11025;DHT22;22890;51.820;8.682;2024-03-17T00:28:06;5.50;99.90
11025;DHT22;22890;51.820;8.682;2024-03-17T00:30:32;5.50;99.90
11025;DHT22;22890;51.820;8.682;2024-03-17T00:32:58;5.40;99.90
11025;DHT22;22890;51.820;8.682;2024-03-17T00:35:25;5.30;99.90
11025;DHT22;22890;51.820;8.682;2024-03-17T00:40:19;5.30;99.90
11025;DHT22;22890;51.820;8.682;2024-03-17T00:42:46;5.30;99.90
11025;DHT22;22890;51.820;8.682;2024-03-17T00:45:12;5.30;99.90
11025;DHT22;22890;51.820;8.682;2024-03-17T00:50:05;5.30;99.90
11025;DHT22;22890;51.820;8.682;2024-03-17T00:52:32;5.40;99.90
11025;DHT22;22890;51.820;8.682;2024-03-17T01:02:18;5.50;99.90
11025;DHT22;22890;51.820;8.682;2024-03-17T01:04:44;4.60;99.90
11025;DHT22;22890;51.820;8.682;2024-03-17T01:07:11;5.40;99.90
11025;DHT22;22890;51.820;8.682;2024-03-17T01:09:37;5.30;99.90
11025;DHT22;22890;51.820;8.682;2024-03-17T01:12:04;5.30;99.90
11025;DHT22;22890;51.820;8.682;2024-03-17T01:14:30;5.20;99.90
11025;DHT22;22890;51.820;8.682;2024-03-17T01:16:56;5.20;99.90
11025;DHT22;22890;51.820;8.682;2024-03-17T01:19:23;5.10;99.90
11025;DHT22;22890;51.820;8.682;2024-03-17T01:24:17;5.00;99.90
11025;DHT22;22890;51.820;8.682;2024-03-17T01:26:43;4.90;99.90
11025;DHT22;22890;51.820;8.682;2024-03-17T01:29:10;4.80;99.90
11025;DHT22;22890;51.820;8.682;2024-03-17T01:34:01;4.60;99.90
11025;DHT22;22890;51.820;8.682;2024-03-17T01:36:27;4.50;99.90
11025;DHT22;22890;51.820;8.682;2024-03-17T01:46:14;2.10;99.90
11025;DHT22;22890;51.820;8.682;2024-03-17T01:51:07;4.40;99.90
11025;DHT22;22890;51.820;8.682;2024-03-17T01:58:27;4.30;99.90
11025;DHT22;22890;51.820;8.682;2024-03-17T02:00:56;4.20;99.90
11025;DHT22;22890;51.820;8.682;2024-03-17T02:05:48;4.20;99.90
11025;DHT22;22890;51.820;8.682;2024-03-17T02:10:41;4.10;99.90
11025;DHT22;22890;51.820;8.682;2024-03-17T02:23:11;3.90;99.90
11025;DHT22;22890;51.820;8.682;2024-03-17T02:30:33;3.80;99.90
11025;DHT22;22890;51.820;8.682;2024-03-17T02:35:25;3.70;99.90
11025;DHT22;22890;51.820;8.682;2024-03-17T02:37:51;3.70;99.90
11025;DHT22;22890;51.820;8.682;2024-03-17T02:45:11;3.60;99.90
11025;DHT22;22890;51.820;8.682;2024-03-17T02:50:07;3.60;99.90
11025;DHT22;22890;51.820;8.682;2024-03-17T02:55:00;3.50;99.90
11025;DHT22;22890;51.820;8.682;2024-03-17T02:59:58;3.50;99.90
11025;DHT22;22890;51.820;8.682;2024-03-17T03:04:50;3.30;99.90
11025;DHT22;22890;51.820;8.682;2024-03-17T03:07:16;3.40;99.90
11025;DHT22;22890;51.820;8.682;2024-03-17T03:24:19;3.20;99.90
11025;DHT22;22890;51.820;8.682;2024-03-17T03:26:45;3.20;99.90
11025;DHT22;22890;51.820;8.682;2024-03-17T03:29:11;3.10;99.90
11025;DHT22;22890;51.820;8.682;2024-03-17T03:31:37;3.20;99.90
11025;DHT22;22890;51.820;8.682;2024-03-17T03:36:34;3.20;99.90
11025;DHT22;22890;51.820;8.682;2024-03-17T03:58:37;3.10;99.90
11025;DHT22;22890;51.820;8.682;2024-03-17T04:01:07;3.10;99.90
11025;DHT22;22890;51.820;8.682;2024-03-17T04:03:34;3.10;99.90
11025;DHT22;22890;51.820;8.682;2024-03-17T04:06:05;3.10;99.90
11025;DHT22;22890;51.820;8.682;2024-03-17T04:08:33;3.10;99.90
11025;DHT22;22890;51.820;8.682;2024-03-17T04:13:27;3.10;99.90
11025;DHT22;22890;51.820;8.682;2024-03-17T04:15:56;3.10;99.90
11025;DHT22;22890;51.820;8.682;2024-03-17T04:18:23;3.20;99.90
11025;DHT22;22890;51.820;8.682;2024-03-17T04:20:54;3.20;99.90
11025;DHT22;22890;51.820;8.682;2024-03-17T04:23:20;3.10;99.90
11025;DHT22;22890;51.820;8.682;2024-03-17T04:28:14;3.20;99.90
11025;DHT22;22890;51.820;8.682;2024-03-17T04:30:40;3.10;99.90
11025;DHT22;22890;51.820;8.682;2024-03-17T04:35:36;3.10;99.90
11025;DHT22;22890;51.820;8.682;2024-03-17T04:38:02;3.10;99.90
11025;DHT22;22890;51.820;8.682;2024-03-17T04:47:46;3.10;99.90
11025;DHT22;22890;51.820;8.682;2024-03-17T04:50:13;3.10;99.90
11025;DHT22;22890;51.820;8.682;2024-03-17T04:52:39;3.10;99.90
11025;DHT22;22890;51.820;8.682;2024-03-17T04:57:30;3.20;99.90
11025;DHT22;22890;51.820;8.682;2024-03-17T05:14:35;3.10;99.90
11025;DHT22;22890;51.820;8.682;2024-03-17T05:19:27;3.10;99.90
11025;DHT22;22890;51.820;8.682;2024-03-17T05:24:19;3.00;99.90
11025;DHT22;22890;51.820;8.682;2024-03-17T05:26:45;2.90;99.90
11025;DHT22;22890;51.820;8.682;2024-03-17T05:29:11;2.90;99.90
11025;DHT22;22890;51.820;8.682;2024-03-17T05:39:02;2.90;99.90
11025;DHT22;22890;51.820;8.682;2024-03-17T05:46:24;3.00;99.90
11025;DHT22;22890;51.820;8.682;2024-03-17T05:58:41;2.90;99.90
11025;DHT22;22890;51.820;8.682;2024-03-17T06:01:07;3.00;99.90
11025;DHT22;22890;51.820;8.682;2024-03-17T06:03:37;2.90;99.90
11025;DHT22;22890;51.820;8.682;2024-03-17T06:06:04;3.00;99.90
11025;DHT22;22890;51.820;8.682;2024-03-17T06:08:30;2.90;99.90
11025;DHT22;22890;51.820;8.682;2024-03-17T06:13:29;3.00;99.90
11025;DHT22;22890;51.820;8.682;2024-03-17T06:15:55;3.00;99.90
11025;DHT22;22890;51.820;8.682;2024-03-17T06:18:26;3.10;99.90
11025;DHT22;22890;51.820;8.682;2024-03-17T06:25:46;3.20;99.90
11025;DHT22;22890;51.820;8.682;2024-03-17T06:28:14;3.30;99.90
11025;DHT22;22890;51.820;8.682;2024-03-17T06:30:44;3.30;99.90
11025;DHT22;22890;51.820;8.682;2024-03-17T06:33:13;3.40;99.90
11025;DHT22;22890;51.820;8.682;2024-03-17T06:38:06;3.50;99.90
11025;DHT22;22890;51.820;8.682;2024-03-17T06:40:39;3.50;99.90
11025;DHT22;22890;51.820;8.682;2024-03-17T06:43:05;3.70;99.90
11025;DHT22;22890;51.820;8.682;2024-03-17T06:45:31;3.70;99.90
11025;DHT22;22890;51.820;8.682;2024-03-17T06:55:20;4.10;99.90
11025;DHT22;22890;51.820;8.682;2024-03-17T07:02:44;4.50;99.90
11025;DHT22;22890;51.820;8.682;2024-03-17T07:05:13;4.80;99.90
11025;DHT22;22890;51.820;8.682;2024-03-17T07:07:41;5.10;99.90
11025;DHT22;22890;51.820;8.682;2024-03-17T07:10:07;5.10;99.90
11025;DHT22;22890;51.820;8.682;2024-03-17T07:12:34;5.50;99.90
11025;DHT22;22890;51.820;8.682;2024-03-17T07:15:00;6.00;99.90
11025;DHT22;22890;51.820;8.682;2024-03-17T07:17:26;6.40;99.90
11025;DHT22;22890;51.820;8.682;2024-03-17T07:19:52;7.00;99.90
11025;DHT22;22890;51.820;8.682;2024-03-17T07:22:17;7.50;99.90
11025;DHT22;22890;51.820;8.682;2024-03-17T07:24:43;8.00;99.90
11025;DHT22;22890;51.820;8.682;2024-03-17T07:27:10;8.40;99.90
11025;DHT22;22890;51.820;8.682;2024-03-17T07:29:39;8.60;99.90
11025;DHT22;22890;51.820;8.682;2024-03-17T07:32:05;8.50;99.90
11025;DHT22;22890;51.820;8.682;2024-03-17T07:34:32;8.40;99.90
11025;DHT22;22890;51.820;8.682;2024-03-17T07:36:58;8.30;99.90
11025;DHT22;22890;51.820;8.682;2024-03-17T07:39:32;8.10;99.90
11025;DHT22;22890;51.820;8.682;2024-03-17T07:42:01;8.00;99.90
11025;DHT22;22890;51.820;8.682;2024-03-17T07:44:28;7.90;99.90
11025;DHT22;22890;51.820;8.682;2024-03-17T07:46:59;7.80;99.90
11025;DHT22;22890;51.820;8.682;2024-03-17T07:49:25;7.70;99.90
11025;DHT22;22890;51.820;8.682;2024-03-17T07:51:50;7.70;99.90
11025;DHT22;22890;51.820;8.682;2024-03-17T07:54:16;7.60;99.90
11025;DHT22;22890;51.820;8.682;2024-03-17T07:56:44;7.60;99.90
11025;DHT22;22890;51.820;8.682;2024-03-17T07:59:10;7.50;99.90
11025;DHT22;22890;51.820;8.682;2024-03-17T08:01:38;7.60;99.90
11025;DHT22;22890;51.820;8.682;2024-03-17T08:04:04;7.60;99.90
11025;DHT22;22890;51.820;8.682;2024-03-17T08:06:30;7.60;99.90
11025;DHT22;22890;51.820;8.682;2024-03-17T08:08:56;7.60;99.90
11025;DHT22;22890;51.820;8.682;2024-03-17T08:11:23;7.70;99.90
11025;DHT22;22890;51.820;8.682;2024-03-17T08:13:49;7.70;99.90
11025;DHT22;22890;51.820;8.682;2024-03-17T08:16:15;7.70;99.90
11025;DHT22;22890;51.820;8.682;2024-03-17T08:18:42;7.80;99.90
11025;DHT22;22890;51.820;8.682;2024-03-17T08:21:08;7.90;99.90
11025;DHT22;22890;51.820;8.682;2024-03-17T08:23:35;7.90;99.90
11025;DHT22;22890;51.820;8.682;2024-03-17T08:26:04;8.00;99.90
11025;DHT22;22890;51.820;8.682;2024-03-17T08:28:30;8.00;99.90
11025;DHT22;22890;51.820;8.682;2024-03-17T08:30:58;8.20;99.90
11025;DHT22;22890;51.820;8.682;2024-03-17T08:33:25;8.30;99.90
11025;DHT22;22890;51.820;8.682;2024-03-17T08:38:23;8.30;99.90
11025;DHT22;22890;51.820;8.682;2024-03-17T08:40:53;8.40;99.90
11025;DHT22;22890;51.820;8.682;2024-03-17T08:43:20;11.20;99.90
11025;DHT22;22890;51.820;8.682;2024-03-17T08:45:54;8.50;99.90
11025;DHT22;22890;51.820;8.682;2024-03-17T08:48:20;8.50;99.90
11025;DHT22;22890;51.820;8.682;2024-03-17T08:50:53;8.50;99.90
11025;DHT22;22890;51.820;8.682;2024-03-17T08:53:19;8.50;99.90
11025;DHT22;22890;51.820;8.682;2024-03-17T08:55:46;8.50;99.90
11025;DHT22;22890;51.820;8.682;2024-03-17T08:58:11;8.50;99.90
11025;DHT22;22890;51.820;8.682;2024-03-17T09:00:37;8.60;99.90
11025;DHT22;22890;51.820;8.682;2024-03-17T09:03:04;8.60;99.90
11025;DHT22;22890;51.820;8.682;2024-03-17T09:05:32;8.70;99.90
11025;DHT22;22890;51.820;8.682;2024-03-17T09:07:57;8.80;99.90
11025;DHT22;22890;51.820;8.682;2024-03-17T09:10:23;8.90;99.90
11025;DHT22;22890;51.820;8.682;2024-03-17T09:12:49;8.90;99.90
11025;DHT22;22890;51.820;8.682;2024-03-17T09:15:15;8.90;99.90
11025;DHT22;22890;51.820;8.682;2024-03-17T09:17:41;9.00;99.90
11025;DHT22;22890;51.820;8.682;2024-03-17T09:20:11;9.00;99.90
11025;DHT22;22890;51.820;8.682;2024-03-17T09:22:38;9.00;99.90
11025;DHT22;22890;51.820;8.682;2024-03-17T09:25:08;9.10;99.90
11025;DHT22;22890;51.820;8.682;2024-03-17T09:27:35;9.20;99.90
11025;DHT22;22890;51.820;8.682;2024-03-17T09:30:06;9.20;99.90
11025;DHT22;22890;51.820;8.682;2024-03-17T09:32:35;9.20;99.90
11025;DHT22;22890;51.820;8.682;2024-03-17T09:35:01;9.30;99.90
11025;DHT22;22890;51.820;8.682;2024-03-17T09:37:28;9.40;99.90
11025;DHT22;22890;51.820;8.682;2024-03-17T09:39:57;9.50;99.90
11025;DHT22;22890;51.820;8.682;2024-03-17T09:42:24;9.50;99.90
11025;DHT22;22890;51.820;8.682;2024-03-17T09:44:50;9.60;99.90
11025;DHT22;22890;51.820;8.682;2024-03-17T09:47:19;9.60;99.90
11025;DHT22;22890;51.820;8.682;2024-03-17T09:49:49;9.70;99.90
11025;DHT22;22890;51.820;8.682;2024-03-17T09:52:23;9.70;99.90
11025;DHT22;22890;51.820;8.682;2024-03-17T09:54:58;9.70;99.90
11025;DHT22;22890;51.820;8.682;2024-03-17T09:57:24;9.70;99.90
11025;DHT22;22890;51.820;8.682;2024-03-17T09:59:54;9.80;99.90
11025;DHT22;22890;51.820;8.682;2024-03-17T10:02:21;9.90;99.90
11025;DHT22;22890;51.820;8.682;2024-03-17T10:04:47;10.00;99.90
11025;DHT22;22890;51.820;8.682;2024-03-17T10:07:13;10.00;99.90
11025;DHT22;22890;51.820;8.682;2024-03-17T10:09:43;10.00;99.90
11025;DHT22;22890;51.820;8.682;2024-03-17T10:12:26;10.10;99.90
11025;DHT22;22890;51.820;8.682;2024-03-17T10:14:59;10.10;99.90
11025;DHT22;22890;51.820;8.682;2024-03-17T10:17:32;10.20;99.90
11025;DHT22;22890;51.820;8.682;2024-03-17T10:23:04;10.30;99.90
11025;DHT22;22890;51.820;8.682;2024-03-17T10:25:32;10.30;99.90
11025;DHT22;22890;51.820;8.682;2024-03-17T10:27:59;10.30;99.90
11025;DHT22;22890;51.820;8.682;2024-03-17T10:30:27;10.30;99.90
11025;DHT22;22890;51.820;8.682;2024-03-17T10:32:58;10.40;99.90
11025;DHT22;22890;51.820;8.682;2024-03-17T10:35:35;10.40;99.90
11025;DHT22;22890;51.820;8.682;2024-03-17T10:38:04;10.30;99.90
11025;DHT22;22890;51.820;8.682;2024-03-17T10:40:31;13.20;99.90
11025;DHT22;22890;51.820;8.682;2024-03-17T10:43:00;10.40;99.90
11025;DHT22;22890;51.820;8.682;2024-03-17T10:45:26;10.50;99.90
11025;DHT22;22890;51.820;8.682;2024-03-17T10:47:56;10.50;99.90
11025;DHT22;22890;51.820;8.682;2024-03-17T10:50:29;10.50;99.90
11025;DHT22;22890;51.820;8.682;2024-03-17T10:53:01;10.60;99.90
11025;DHT22;22890;51.820;8.682;2024-03-17T10:55:32;10.60;99.90
11025;DHT22;22890;51.820;8.682;2024-03-17T10:58:00;10.70;99.90
11025;DHT22;22890;51.820;8.682;2024-03-17T11:00:30;10.70;99.90
11025;DHT22;22890;51.820;8.682;2024-03-17T11:02:57;10.80;99.90
11025;DHT22;22890;51.820;8.682;2024-03-17T11:05:27;10.80;99.90
11025;DHT22;22890;51.820;8.682;2024-03-17T11:07:59;10.70;99.90
11025;DHT22;22890;51.820;8.682;2024-03-17T11:10:36;10.70;99.90
11025;DHT22;22890;51.820;8.682;2024-03-17T11:13:03;10.80;99.90
11025;DHT22;22890;51.820;8.682;2024-03-17T11:20:39;10.90;99.90
11025;DHT22;22890;51.820;8.682;2024-03-17T11:23:05;10.90;99.90
11025;DHT22;22890;51.820;8.682;2024-03-17T11:28:03;11.00;99.90
11025;DHT22;22890;51.820;8.682;2024-03-17T11:39:08;11.20;99.90
11025;DHT22;22890;51.820;8.682;2024-03-17T11:41:43;11.20;99.90
11025;DHT22;22890;51.820;8.682;2024-03-17T11:49:35;11.30;99.90
11025;DHT22;22890;51.820;8.682;2024-03-17T11:54:37;11.40;99.90
11025;DHT22;22890;51.820;8.682;2024-03-17T11:57:08;11.40;99.90
11025;DHT22;22890;51.820;8.682;2024-03-17T11:59:36;11.50;99.90
11025;DHT22;22890;51.820;8.682;2024-03-17T12:04:51;11.50;99.90
11025;DHT22;22890;51.820;8.682;2024-03-17T12:07:18;11.60;99.90
11025;DHT22;22890;51.820;8.682;2024-03-17T12:09:45;11.60;99.90
11025;DHT22;22890;51.820;8.682;2024-03-17T12:12:19;11.60;99.90
11025;DHT22;22890;51.820;8.682;2024-03-17T12:14:46;11.70;99.90
11025;DHT22;22890;51.820;8.682;2024-03-17T12:17:15;11.70;99.90
11025;DHT22;22890;51.820;8.682;2024-03-17T12:19:44;11.70;99.90
11025;DHT22;22890;51.820;8.682;2024-03-17T12:22:22;11.70;99.90
11025;DHT22;22890;51.820;8.682;2024-03-17T12:24:57;11.70;99.90
11025;DHT22;22890;51.820;8.682;2024-03-17T12:27:26;11.70;99.90
11025;DHT22;22890;51.820;8.682;2024-03-17T12:29:53;11.70;99.90
11025;DHT22;22890;51.820;8.682;2024-03-17T12:32:23;11.80;99.90
11025;DHT22;22890;51.820;8.682;2024-03-17T12:37:21;11.80;99.90
11025;DHT22;22890;51.820;8.682;2024-03-17T12:39:47;11.90;99.90
11025;DHT22;22890;51.820;8.682;2024-03-17T12:42:15;11.90;99.90
11025;DHT22;22890;51.820;8.682;2024-03-17T12:44:50;12.00;99.90
11025;DHT22;22890;51.820;8.682;2024-03-17T12:47:18;12.10;99.90
11025;DHT22;22890;51.820;8.682;2024-03-17T12:49:54;12.10;99.90
11025;DHT22;22890;51.820;8.682;2024-03-17T12:52:31;12.20;99.90
11025;DHT22;22890;51.820;8.682;2024-03-17T12:55:04;12.20;99.90
11025;DHT22;22890;51.820;8.682;2024-03-17T12:57:50;12.30;99.90
11025;DHT22;22890;51.820;8.682;2024-03-17T13:00:35;12.30;99.90
11025;DHT22;22890;51.820;8.682;2024-03-17T13:03:03;12.40;99.90
11025;DHT22;22890;51.820;8.682;2024-03-17T13:05:33;12.40;99.90
11025;DHT22;22890;51.820;8.682;2024-03-17T13:07:59;14.00;99.90
11025;DHT22;22890;51.820;8.682;2024-03-17T13:10:28;12.40;99.90
11025;DHT22;22890;51.820;8.682;2024-03-17T13:13:04;12.30;99.90
11025;DHT22;22890;51.820;8.682;2024-03-17T13:15:33;12.30;99.90
11025;DHT22;22890;51.820;8.682;2024-03-17T13:18:04;12.30;99.90
11025;DHT22;22890;51.820;8.682;2024-03-17T13:20:31;12.40;99.90
11025;DHT22;22890;51.820;8.682;2024-03-17T13:22:58;12.40;99.90
11025;DHT22;22890;51.820;8.682;2024-03-17T13:25:26;12.50;99.90
11025;DHT22;22890;51.820;8.682;2024-03-17T13:27:55;12.50;99.90
11025;DHT22;22890;51.820;8.682;2024-03-17T13:30:22;12.60;99.90
11025;DHT22;22890;51.820;8.682;2024-03-17T13:32:52;12.50;99.90
11025;DHT22;22890;51.820;8.682;2024-03-17T13:35:25;12.60;99.90
11025;DHT22;22890;51.820;8.682;2024-03-17T13:37:52;12.60;99.90
11025;DHT22;22890;51.820;8.682;2024-03-17T13:40:20;12.60;99.90
11025;DHT22;22890;51.820;8.682;2024-03-17T13:42:47;12.60;99.90
11025;DHT22;22890;51.820;8.682;2024-03-17T13:45:13;12.60;99.90
11025;DHT22;22890;51.820;8.682;2024-03-17T13:47:40;12.70;99.90
11025;DHT22;22890;51.820;8.682;2024-03-17T13:50:07;12.70;99.90
11025;DHT22;22890;51.820;8.682;2024-03-17T13:52:37;12.70;99.90
11025;DHT22;22890;51.820;8.682;2024-03-17T13:55:04;12.80;99.90
11025;DHT22;22890;51.820;8.682;2024-03-17T13:57:35;12.80;99.90
11025;DHT22;22890;51.820;8.682;2024-03-17T14:00:01;12.80;99.90
11025;DHT22;22890;51.820;8.682;2024-03-17T14:02:37;12.80;99.90
11025;DHT22;22890;51.820;8.682;2024-03-17T14:05:03;12.80;99.90
11025;DHT22;22890;51.820;8.682;2024-03-17T14:07:33;12.80;99.90
11025;DHT22;22890;51.820;8.682;2024-03-17T14:09:59;12.90;99.90
11025;DHT22;22890;51.820;8.682;2024-03-17T14:12:25;12.90;99.90
11025;DHT22;22890;51.820;8.682;2024-03-17T14:14:52;12.90;99.90
11025;DHT22;22890;51.820;8.682;2024-03-17T14:17:18;12.90;99.90
11025;DHT22;22890;51.820;8.682;2024-03-17T14:19:44;13.00;99.90
11025;DHT22;22890;51.820;8.682;2024-03-17T14:22:10;12.90;99.90
11025;DHT22;22890;51.820;8.682;2024-03-17T14:24:35;12.90;99.90
11025;DHT22;22890;51.820;8.682;2024-03-17T14:27:01;12.90;99.90
11025;DHT22;22890;51.820;8.682;2024-03-17T14:29:27;13.00;99.90
11025;DHT22;22890;51.820;8.682;2024-03-17T14:31:53;12.90;99.90
11025;DHT22;22890;51.820;8.682;2024-03-17T14:34:18;12.90;99.90
11025;DHT22;22890;51.820;8.682;2024-03-17T14:36:44;12.90;99.90
11025;DHT22;22890;51.820;8.682;2024-03-17T14:39:10;12.90;99.90
11025;DHT22;22890;51.820;8.682;2024-03-17T14:41:36;12.70;99.90
11025;DHT22;22890;51.820;8.682;2024-03-17T14:44:02;12.70;99.90
11025;DHT22;22890;51.820;8.682;2024-03-17T14:46:29;12.70;99.90
11025;DHT22;22890;51.820;8.682;2024-03-17T14:48:55;12.70;99.90
11025;DHT22;22890;51.820;8.682;2024-03-17T14:51:21;12.70;99.90
11025;DHT22;22890;51.820;8.682;2024-03-17T14:53:47;12.70;99.90
11025;DHT22;22890;51.820;8.682;2024-03-17T14:56:22;12.70;99.90
11025;DHT22;22890;51.820;8.682;2024-03-17T14:58:48;12.60;99.90
11025;DHT22;22890;51.820;8.682;2024-03-17T15:01:15;12.60;99.90
11025;DHT22;22890;51.820;8.682;2024-03-17T15:03:40;12.60;99.90
11025;DHT22;22890;51.820;8.682;2024-03-17T15:06:11;12.60;99.90
11025;DHT22;22890;51.820;8.682;2024-03-17T15:08:37;12.50;99.90
11025;DHT22;22890;51.820;8.682;2024-03-17T15:11:03;12.50;99.90
11025;DHT22;22890;51.820;8.682;2024-03-17T15:13:29;12.50;99.90
11025;DHT22;22890;51.820;8.682;2024-03-17T15:15:55;12.50;99.90
11025;DHT22;22890;51.820;8.682;2024-03-17T15:18:21;12.50;99.90
11025;DHT22;22890;51.820;8.682;2024-03-17T15:20:53;12.40;99.90
11025;DHT22;22890;51.820;8.682;2024-03-17T15:23:21;12.50;99.90
11025;DHT22;22890;51.820;8.682;2024-03-17T15:25:47;12.50;99.90
11025;DHT22;22890;51.820;8.682;2024-03-17T15:28:13;12.50;99.90
11025;DHT22;22890;51.820;8.682;2024-03-17T15:30:39;12.50;99.90
11025;DHT22;22890;51.820;8.682;2024-03-17T15:33:05;12.40;99.90
11025;DHT22;22890;51.820;8.682;2024-03-17T15:35:31;12.40;99.90
11025;DHT22;22890;51.820;8.682;2024-03-17T15:37:58;12.40;99.90
11025;DHT22;22890;51.820;8.682;2024-03-17T15:40:24;12.40;99.90
11025;DHT22;22890;51.820;8.682;2024-03-17T15:42:50;12.40;99.90
11025;DHT22;22890;51.820;8.682;2024-03-17T15:45:17;12.40;99.90
11025;DHT22;22890;51.820;8.682;2024-03-17T15:47:48;12.40;99.90
11025;DHT22;22890;51.820;8.682;2024-03-17T15:50:14;12.40;99.90
11025;DHT22;22890;51.820;8.682;2024-03-17T15:52:41;12.40;99.90
11025;DHT22;22890;51.820;8.682;2024-03-17T15:55:08;12.40;99.90
11025;DHT22;22890;51.820;8.682;2024-03-17T15:57:35;12.40;99.90
11025;DHT22;22890;51.820;8.682;2024-03-17T16:00:02;12.40;99.90
11025;DHT22;22890;51.820;8.682;2024-03-17T16:02:38;12.30;99.90
11025;DHT22;22890;51.820;8.682;2024-03-17T16:05:04;12.30;99.90
11025;DHT22;22890;51.820;8.682;2024-03-17T16:07:36;12.30;99.90
11025;DHT22;22890;51.820;8.682;2024-03-17T16:10:04;12.30;99.90
11025;DHT22;22890;51.820;8.682;2024-03-17T16:12:30;12.30;99.90
11025;DHT22;22890;51.820;8.682;2024-03-17T16:14:56;12.20;99.90
11025;DHT22;22890;51.820;8.682;2024-03-17T16:17:29;12.20;99.90
11025;DHT22;22890;51.820;8.682;2024-03-17T16:19:56;12.10;99.90
11025;DHT22;22890;51.820;8.682;2024-03-17T16:22:24;12.10;99.90
11025;DHT22;22890;51.820;8.682;2024-03-17T16:24:50;12.10;99.90
11025;DHT22;22890;51.820;8.682;2024-03-17T16:27:16;12.00;99.90
11025;DHT22;22890;51.820;8.682;2024-03-17T16:29:42;12.00;99.90
11025;DHT22;22890;51.820;8.682;2024-03-17T16:32:09;12.00;99.90
11025;DHT22;22890;51.820;8.682;2024-03-17T16:34:36;13.20;99.90
11025;DHT22;22890;51.820;8.682;2024-03-17T16:37:01;11.90;99.90
11025;DHT22;22890;51.820;8.682;2024-03-17T16:39:27;11.90;99.90
11025;DHT22;22890;51.820;8.682;2024-03-17T16:41:55;11.90;99.90
11025;DHT22;22890;51.820;8.682;2024-03-17T16:45:10;11.90;99.90
11025;DHT22;22890;51.820;8.682;2024-03-17T16:47:32;11.80;99.90
11025;DHT22;22890;51.820;8.682;2024-03-17T16:49:59;11.80;99.90
11025;DHT22;22890;51.820;8.682;2024-03-17T16:52:31;11.80;99.90
11025;DHT22;22890;51.820;8.682;2024-03-17T16:54:58;11.80;99.90
11025;DHT22;22890;51.820;8.682;2024-03-17T16:57:24;11.80;99.90
11025;DHT22;22890;51.820;8.682;2024-03-17T16:59:50;12.00;99.90
11025;DHT22;22890;51.820;8.682;2024-03-17T17:02:17;11.70;99.90
11025;DHT22;22890;51.820;8.682;2024-03-17T17:04:44;11.70;99.90
11025;DHT22;22890;51.820;8.682;2024-03-17T17:07:10;11.70;99.90
11025;DHT22;22890;51.820;8.682;2024-03-17T17:09:36;11.60;99.90
11025;DHT22;22890;51.820;8.682;2024-03-17T17:12:07;11.60;99.90
11025;DHT22;22890;51.820;8.682;2024-03-17T17:14:33;11.60;99.90
11025;DHT22;22890;51.820;8.682;2024-03-17T17:17:08;11.50;99.90
11025;DHT22;22890;51.820;8.682;2024-03-17T17:19:34;11.50;99.90
11025;DHT22;22890;51.820;8.682;2024-03-17T17:22:04;11.40;99.90
11025;DHT22;22890;51.820;8.682;2024-03-17T17:24:29;11.40;99.90
11025;DHT22;22890;51.820;8.682;2024-03-17T17:26:58;11.30;99.90
11025;DHT22;22890;51.820;8.682;2024-03-17T17:29:24;11.30;99.90
11025;DHT22;22890;51.820;8.682;2024-03-17T17:31:50;11.30;99.90
11025;DHT22;22890;51.820;8.682;2024-03-17T17:34:16;11.20;99.90
11025;DHT22;22890;51.820;8.682;2024-03-17T17:36:42;11.20;99.90
11025;DHT22;22890;51.820;8.682;2024-03-17T17:39:09;11.20;99.90
11025;DHT22;22890;51.820;8.682;2024-03-17T17:41:37;11.10;99.90
11025;DHT22;22890;51.820;8.682;2024-03-17T17:44:03;11.10;99.90
11025;DHT22;22890;51.820;8.682;2024-03-17T17:46:29;11.10;99.90
11025;DHT22;22890;51.820;8.682;2024-03-17T17:48:55;11.00;99.90
11025;DHT22;22890;51.820;8.682;2024-03-17T17:51:21;11.00;99.90
11025;DHT22;22890;51.820;8.682;2024-03-17T17:53:49;11.00;99.90
11025;DHT22;22890;51.820;8.682;2024-03-17T17:56:16;11.00;99.90
11025;DHT22;22890;51.820;8.682;2024-03-17T17:58:44;11.00;99.90
11025;DHT22;22890;51.820;8.682;2024-03-17T18:01:11;10.90;99.90
11025;DHT22;22890;51.820;8.682;2024-03-17T18:03:39;10.90;99.90
11025;DHT22;22890;51.820;8.682;2024-03-17T18:06:05;10.90;99.90
11025;DHT22;22890;51.820;8.682;2024-03-17T18:08:32;10.90;99.90
11025;DHT22;22890;51.820;8.682;2024-03-17T18:10:58;10.80;99.90
11025;DHT22;22890;51.820;8.682;2024-03-17T18:13:26;10.80;99.90
11025;DHT22;22890;51.820;8.682;2024-03-17T18:16:04;10.80;99.90
11025;DHT22;22890;51.820;8.682;2024-03-17T18:18:33;10.70;99.90
11025;DHT22;22890;51.820;8.682;2024-03-17T18:21:03;10.80;99.90
11025;DHT22;22890;51.820;8.682;2024-03-17T18:23:31;10.60;99.90
11025;DHT22;22890;51.820;8.682;2024-03-17T18:25:57;10.60;99.90
11025;DHT22;22890;51.820;8.682;2024-03-17T18:28:24;10.50;99.90
11025;DHT22;22890;51.820;8.682;2024-03-17T18:30:50;10.50;99.90
11025;DHT22;22890;51.820;8.682;2024-03-17T18:33:17;10.50;99.90
11025;DHT22;22890;51.820;8.682;2024-03-17T18:35:50;10.50;99.90
11025;DHT22;22890;51.820;8.682;2024-03-17T18:38:18;10.50;99.90
11025;DHT22;22890;51.820;8.682;2024-03-17T18:40:44;10.50;99.90
11025;DHT22;22890;51.820;8.682;2024-03-17T18:43:11;10.50;99.90
11025;DHT22;22890;51.820;8.682;2024-03-17T18:45:37;10.50;99.90
11025;DHT22;22890;51.820;8.682;2024-03-17T18:48:03;10.50;99.90
11025;DHT22;22890;51.820;8.682;2024-03-17T18:50:29;10.50;99.90
11025;DHT22;22890;51.820;8.682;2024-03-17T18:52:55;10.40;99.90
11025;DHT22;22890;51.820;8.682;2024-03-17T18:55:21;10.40;99.90
11025;DHT22;22890;51.820;8.682;2024-03-17T18:57:48;10.40;99.90
11025;DHT22;22890;51.820;8.682;2024-03-17T19:00:14;10.40;99.90
11025;DHT22;22890;51.820;8.682;2024-03-17T19:02:46;10.30;99.90
11025;DHT22;22890;51.820;8.682;2024-03-17T19:05:12;10.30;99.90
11025;DHT22;22890;51.820;8.682;2024-03-17T19:07:38;10.30;99.90
11025;DHT22;22890;51.820;8.682;2024-03-17T19:10:05;10.20;99.90
11025;DHT22;22890;51.820;8.682;2024-03-17T19:12:34;10.20;99.90
11025;DHT22;22890;51.820;8.682;2024-03-17T19:15:03;10.20;99.90
11025;DHT22;22890;51.820;8.682;2024-03-17T19:17:32;10.20;99.90
11025;DHT22;22890;51.820;8.682;2024-03-17T19:19:59;10.20;99.90
11025;DHT22;22890;51.820;8.682;2024-03-17T19:22:25;10.20;99.90
11025;DHT22;22890;51.820;8.682;2024-03-17T19:24:55;10.10;99.90
11025;DHT22;22890;51.820;8.682;2024-03-17T19:27:21;10.10;99.90
11025;DHT22;22890;51.820;8.682;2024-03-17T19:29:48;10.10;99.90
11025;DHT22;22890;51.820;8.682;2024-03-17T19:32:14;10.10;99.90
11025;DHT22;22890;51.820;8.682;2024-03-17T19:34:39;10.10;99.90
11025;DHT22;22890;51.820;8.682;2024-03-17T19:37:05;10.00;99.90
11025;DHT22;22890;51.820;8.682;2024-03-17T19:39:32;10.00;99.90
11025;DHT22;22890;51.820;8.682;2024-03-17T19:41:58;10.00;99.90
11025;DHT22;22890;51.820;8.682;2024-03-17T19:44:26;10.00;99.90